Time;durP1;ratioP1;P1;durP2;ratioP2;P2;SDS_P1;SDS_P2;PMS_P1;PMS_P2;Temp;Humidity;BMP_temperature;BMP_pressure;BME280_temperature;BME280_humidity;BME280_pressure;Samples;Min_cycle;Max_cycle;Signal;HPM_P1;HPM_P2
2023/10/03 00:02:03;;;;;;;9.32;3.75;;;19.60;79.30;;;;;;5068468;28;20021;-64
2023/10/03 00:04:28;;;;;;;9.20;3.63;;;19.60;79.30;;;;;;5066035;28;20039;-64
2023/10/03 00:06:54;;;;;;;7.05;3.45;;;19.60;79.30;;;;;;5063975;28;21330;-64
2023/10/03 00:09:20;;;;;;;11.15;5.28;;;19.60;79.40;;;;;;5066785;28;20469;-64
2023/10/03 00:11:45;;;;;;;8.50;3.60;;;19.60;79.50;;;;;;5049247;28;20152;-65
2023/10/03 00:14:11;;;;;;;5.90;3.58;;;19.50;79.50;;;;;;5065169;28;20064;-64
2023/10/03 00:16:38;;;;;;;9.43;4.80;;;19.50;79.50;;;;;;5067960;28;20041;-64
2023/10/03 00:19:04;;;;;;;7.25;3.45;;;19.50;79.80;;;;;;5050699;28;20086;-65
2023/10/03 00:21:29;;;;;;;8.23;4.55;;;19.60;79.90;;;;;;5060890;28;20025;-64
2023/10/03 00:23:55;;;;;;;8.90;4.43;;;19.60;79.90;;;;;;5067012;28;20049;-64
2023/10/03 00:26:22;;;;;;;7.63;3.60;;;19.60;79.80;;;;;;5069328;28;20028;-65
2023/10/03 00:28:49;;;;;;;8.30;4.75;;;19.60;79.80;;;;;;5050772;28;20029;-64
2023/10/03 00:31:15;;;;;;;11.20;4.72;;;19.70;79.90;;;;;;5050148;28;20384;-69
2023/10/03 00:33:43;;;;;;;11.73;4.43;;;19.70;79.80;;;;;;5048070;28;20032;-69
2023/10/03 00:36:25;;;;;;;11.93;4.38;;;19.80;80.00;;;;;;5066779;28;20024;-69
2023/10/03 00:38:52;;;;;;;7.80;4.32;;;19.90;79.70;;;;;;5069344;28;20028;-69
2023/10/03 00:41:22;;;;;;;13.23;4.75;;;19.90;79.40;;;;;;5064953;28;20039;-65
2023/10/03 00:44:06;;;;;;;8.15;3.67;;;20.00;79.40;;;;;;5064824;28;20524;-64
2023/10/03 00:46:33;;;;;;;8.65;4.32;;;20.00;79.30;;;;;;5060657;28;20102;-64
2023/10/03 00:49:09;;;;;;;15.18;4.43;;;20.00;79.40;;;;;;5067818;28;20416;-69
2023/10/03 00:51:35;;;;;;;6.40;3.22;;;20.00;79.30;;;;;;5062532;28;20025;-69
2023/10/03 00:54:02;;;;;;;9.75;4.82;;;20.00;79.30;;;;;;5064255;28;20054;-69
2023/10/03 00:56:28;;;;;;;10.70;4.30;;;20.00;79.30;;;;;;5066954;28;20125;-64
2023/10/03 00:58:54;;;;;;;11.82;4.55;;;20.00;79.30;;;;;;5030779;28;20029;-65
2023/10/03 01:01:21;;;;;;;11.23;4.72;;;20.00;79.30;;;;;;5050240;28;20032;-64
2023/10/03 01:03:47;;;;;;;7.60;3.67;;;20.00;79.30;;;;;;5062706;28;20111;-65
2023/10/03 01:06:15;;;;;;;7.55;3.25;;;20.00;79.90;;;;;;5062518;28;20024;-64
2023/10/03 01:08:48;;;;;;;9.52;3.22;;;20.00;79.20;;;;;;5044287;28;20487;-65
2023/10/03 01:11:15;;;;;;;9.15;4.65;;;20.00;79.10;;;;;;5060903;28;20037;-64
2023/10/03 01:14:00;;;;;;;13.27;3.95;;;19.90;79.10;;;;;;5064361;28;20107;-64
2023/10/03 01:16:36;;;;;;;11.45;5.55;;;19.90;79.00;;;;;;5062606;28;20391;-64
2023/10/03 01:19:14;;;;;;;8.50;3.72;;;19.90;79.10;;;;;;5066544;28;20810;-64
2023/10/03 01:21:45;;;;;;;10.43;5.07;;;19.80;79.70;;;;;;5066749;28;20112;-64
2023/10/03 01:24:20;;;;;;;10.60;4.15;;;19.80;79.10;;;;;;5066946;28;20365;-64
2023/10/03 01:26:52;;;;;;;8.82;4.30;;;19.70;79.10;;;;;;5067366;28;20086;-64
2023/10/03 01:29:18;;;;;;;9.25;4.47;;;19.70;79.10;;;;;;5064713;28;20123;-69
2023/10/03 01:31:44;;;;;;;10.88;4.68;;;19.60;79.10;;;;;;5068729;28;20032;-69
2023/10/03 01:34:10;;;;;;;11.43;4.35;;;19.60;79.10;;;;;;5064554;28;20050;-69
2023/10/03 01:36:36;;;;;;;7.80;3.88;;;19.60;79.10;;;;;;5062337;28;20480;-70
2023/10/03 01:39:02;;;;;;;8.25;4.60;;;19.60;79.10;;;;;;5061819;28;20017;-70
2023/10/03 01:41:28;;;;;;;7.88;3.65;;;19.50;79.10;;;;;;5064845;28;20070;-69
2023/10/03 01:43:54;;;;;;;10.70;5.75;;;19.50;79.20;;;;;;5043874;28;20029;-69
2023/10/03 01:46:19;;;;;;;11.82;4.55;;;19.40;79.20;;;;;;5049543;28;20053;-69
2023/10/03 01:48:45;;;;;;;11.27;4.72;;;19.40;79.20;;;;;;5062179;28;20123;-69
2023/10/03 01:51:11;;;;;;;12.13;5.35;;;19.40;79.20;;;;;;5068441;28;20082;-69
2023/10/03 01:53:39;;;;;;;11.68;3.85;;;19.40;79.30;;;;;;5064765;28;20039;-69
2023/10/03 01:56:06;;;;;;;12.20;4.65;;;19.40;79.30;;;;;;5066801;28;20028;-69
2023/10/03 01:58:32;;;;;;;8.60;3.83;;;19.30;79.30;;;;;;5047913;28;20032;-64
2023/10/03 02:00:57;;;;;;;13.25;4.78;;;19.30;79.40;;;;;;5059830;28;20028;-64
2023/10/03 02:03:23;;;;;;;9.30;4.68;;;19.20;79.40;;;;;;5066229;28;20031;-64
2023/10/03 02:05:49;;;;;;;9.00;5.03;;;19.20;79.50;;;;;;5048786;28;20028;-64
2023/10/03 02:08:17;;;;;;;11.25;4.65;;;19.20;79.50;;;;;;5067838;28;20033;-64
2023/10/03 02:10:50;;;;;;;7.78;4.05;;;19.20;79.60;;;;;;5050185;28;20538;-69
2023/10/03 02:13:21;;;;;;;11.77;4.05;;;19.20;79.70;;;;;;5040594;28;20029;-64
2023/10/03 02:15:51;;;;;;;11.63;4.60;;;19.10;79.70;;;;;;5063896;28;20039;-65
2023/10/03 02:18:19;;;;;;;10.10;4.55;;;19.10;79.70;;;;;;5067758;28;20033;-64
2023/10/03 02:20:55;;;;;;;11.27;4.43;;;19.10;79.70;;;;;;5067451;28;20040;-64
2023/10/03 02:23:25;;;;;;;9.63;3.45;;;19.10;79.80;;;;;;5064594;28;20025;-64
2023/10/03 02:25:55;;;;;;;13.85;4.63;;;19.10;79.90;;;;;;5060228;28;20020;-64
2023/10/03 02:28:22;;;;;;;11.85;4.68;;;19.00;79.90;;;;;;5061351;28;20036;-64
2023/10/03 02:30:50;;;;;;;11.15;3.95;;;19.00;79.90;;;;;;5064666;28;20125;-64
2023/10/03 02:33:17;;;;;;;11.63;3.85;;;19.00;79.90;;;;;;5057345;28;20090;-64
2023/10/03 02:35:48;;;;;;;7.65;3.75;;;19.00;80.00;;;;;;5064406;28;20025;-64
2023/10/03 02:38:30;;;;;;;11.73;4.75;;;19.00;80.00;;;;;;5067561;28;20071;-64
2023/10/03 02:40:59;;;;;;;7.78;4.60;;;19.00;80.30;;;;;;5060304;28;20093;-64
2023/10/03 02:43:34;;;;;;;8.95;4.18;;;19.00;80.30;;;;;;5066521;28;20036;-68
2023/10/03 02:46:00;;;;;;;12.98;5.07;;;19.10;80.30;;;;;;5062102;28;20040;-69
2023/10/03 02:48:26;;;;;;;9.75;4.15;;;19.20;80.30;;;;;;5062532;28;20071;-65
2023/10/03 02:50:52;;;;;;;9.85;4.10;;;19.20;80.10;;;;;;5067244;28;20029;-64
2023/10/03 02:53:21;;;;;;;15.82;5.40;;;19.30;80.20;;;;;;5067757;28;20121;-65
2023/10/03 02:55:52;;;;;;;14.95;5.10;;;19.30;80.10;;;;;;5063525;28;20031;-65
2023/10/03 02:58:22;;;;;;;9.13;3.97;;;19.30;80.10;;;;;;5060937;28;20043;-64
2023/10/03 03:00:53;;;;;;;9.85;4.65;;;19.40;80.00;;;;;;5046688;28;20021;-64
2023/10/03 03:03:19;;;;;;;10.40;4.15;;;19.40;80.00;;;;;;5056892;28;20021;-69
2023/10/03 03:05:46;;;;;;;10.80;3.60;;;19.50;80.00;;;;;;5063547;28;20024;-64
2023/10/03 03:10:55;;;;;;;11.57;4.63;;;19.50;79.90;;;;;;5066367;28;20444;-64
2023/10/03 03:13:26;;;;;;;13.82;5.53;;;19.70;79.90;;;;;;5070811;28;20036;-64
2023/10/03 03:15:59;;;;;;;10.45;4.32;;;19.80;79.70;;;;;;5065243;28;20471;-64
2023/10/03 03:18:25;;;;;;;10.80;5.72;;;19.80;79.60;;;;;;5064922;28;20552;-69
2023/10/03 03:20:57;;;;;;;9.55;4.38;;;19.90;79.40;;;;;;5051187;28;20418;-69
2023/10/03 03:23:55;;;;;;;;;;;19.90;79.30;;;;;;5053443;28;20016;-69
2023/10/03 03:26:17;;;;;;;14.53;5.83;;;20.00;79.30;;;;;;5060576;28;19919;-69
2023/10/03 03:28:44;;;;;;;12.73;4.53;;;20.10;78.90;;;;;;5068777;28;20400;-69
2023/10/03 03:33:46;;;;;;;13.32;5.00;;;20.30;78.50;;;;;;5067385;28;20037;-69
2023/10/03 03:36:23;;;;;;;14.95;6.00;;;20.40;78.30;;;;;;5067169;28;20098;-69
2023/10/03 03:38:51;;;;;;;10.20;5.00;;;20.40;78.20;;;;;;5068839;28;20093;-69
2023/10/03 03:41:18;;;;;;;13.55;4.57;;;20.50;78.10;;;;;;5071066;28;20036;-69
2023/10/03 03:43:44;;;;;;;11.65;4.70;;;20.50;78.00;;;;;;5066651;28;20025;-69
2023/10/03 03:46:12;;;;;;;13.68;4.40;;;20.50;78.00;;;;;;5065320;28;20036;-69
2023/10/03 03:48:38;;;;;;;10.82;3.90;;;20.50;78.00;;;;;;5069902;28;20033;-65
2023/10/03 03:51:06;;;;;;;13.60;4.93;;;20.60;78.00;;;;;;5046931;28;20056;-64
2023/10/03 03:53:33;;;;;;;12.57;5.03;;;20.60;77.90;;;;;;5063046;28;20056;-64
2023/10/03 03:55:59;;;;;;;9.57;3.13;;;20.60;77.80;;;;;;5070848;28;20071;-64
2023/10/03 03:58:26;;;;;;;9.65;4.05;;;20.60;77.80;;;;;;5068060;28;20037;-65
2023/10/03 04:00:52;;;;;;;10.80;3.85;;;20.60;77.80;;;;;;5064321;28;20443;-64
2023/10/03 04:03:23;;;;;;;10.20;4.38;;;20.50;77.80;;;;;;5051873;28;20055;-65
2023/10/03 04:05:49;;;;;;;14.97;4.03;;;20.50;77.80;;;;;;5049699;28;20032;-65
2023/10/03 04:08:18;;;;;;;9.82;4.38;;;20.50;77.90;;;;;;5050047;28;20028;-65
2023/10/03 04:10:44;;;;;;;10.18;4.07;;;20.50;77.90;;;;;;5070222;28;20052;-64
2023/10/03 04:13:10;;;;;;;14.75;4.88;;;20.60;77.90;;;;;;5060992;28;20035;-65
2023/10/03 04:15:43;;;;;;;13.13;4.68;;;20.60;77.80;;;;;;5063436;28;20119;-64
2023/10/03 04:18:09;;;;;;;14.07;5.53;;;20.60;77.80;;;;;;5067895;28;20138;-64
2023/10/03 04:20:41;;;;;;;12.98;5.93;;;20.60;77.90;;;;;;5064079;28;20029;-64
2023/10/03 04:23:08;;;;;;;9.23;3.60;;;20.60;77.90;;;;;;5069818;28;20027;-64
2023/10/03 04:25:34;;;;;;;12.00;4.30;;;20.60;77.80;;;;;;5069323;28;20074;-65
2023/10/03 04:28:01;;;;;;;11.57;3.85;;;20.60;77.80;;;;;;5067133;28;20110;-64
2023/10/03 04:30:27;;;;;;;7.97;3.67;;;20.60;77.80;;;;;;5064598;28;20479;-64
2023/10/03 04:32:54;;;;;;;7.15;3.10;;;20.70;77.80;;;;;;5068810;28;20039;-64
2023/10/03 04:35:23;;;;;;;7.38;4.05;;;20.70;77.70;;;;;;5059265;28;20052;-64
2023/10/03 04:37:51;;;;;;;10.38;4.97;;;20.70;77.70;;;;;;5061011;28;20055;-65
2023/10/03 04:40:22;;;;;;;10.45;4.00;;;20.70;77.70;;;;;;5068240;28;20600;-64
2023/10/03 04:42:52;;;;;;;7.13;3.42;;;20.70;77.60;;;;;;5050319;28;20070;-69
2023/10/03 04:45:22;;;;;;;8.98;3.78;;;20.80;77.60;;;;;;5063723;28;20036;-69
2023/10/03 04:47:48;;;;;;;8.35;3.53;;;20.80;77.60;;;;;;5056752;28;20082;-69
2023/10/03 04:50:18;;;;;;;6.50;3.17;;;20.80;77.70;;;;;;5060094;28;20044;-69
2023/10/03 04:52:48;;;;;;;8.07;3.50;;;20.80;77.80;;;;;;5064079;28;20487;-64
2023/10/03 04:55:19;;;;;;;5.82;3.05;;;20.80;77.80;;;;;;5062019;28;20111;-69
2023/10/03 04:57:46;;;;;;;7.50;3.03;;;20.80;77.70;;;;;;5055442;28;20465;-69
2023/10/03 05:00:19;;;;;;;8.77;2.50;;;20.80;77.60;;;;;;5057019;28;20128;-69
2023/10/03 05:02:50;;;;;;;9.48;3.33;;;20.70;77.50;;;;;;5060240;28;20044;-69
2023/10/03 05:05:18;;;;;;;7.55;2.45;;;20.70;77.60;;;;;;5060341;28;20488;-69
2023/10/03 05:07:44;;;;;;;2.60;1.70;;;20.60;77.70;;;;;;5061180;28;20054;-69
2023/10/03 05:10:10;;;;;;;3.55;2.22;;;20.60;77.80;;;;;;5045267;28;20067;-69
2023/10/03 05:12:36;;;;;;;5.38;1.90;;;20.60;77.60;;;;;;5059117;28;20759;-69
2023/10/03 05:15:03;;;;;;;1.95;1.35;;;20.60;77.70;;;;;;5059401;28;20036;-69
2023/10/03 05:17:30;;;;;;;3.72;1.98;;;20.60;77.60;;;;;;5062132;28;20074;-69
2023/10/03 05:19:58;;;;;;;4.90;2.08;;;20.60;77.50;;;;;;5060421;28;20040;-68
2023/10/03 05:22:25;;;;;;;2.42;1.65;;;20.60;77.40;;;;;;5041136;28;20040;-69
2023/10/03 05:24:52;;;;;;;3.45;2.10;;;20.60;77.40;;;;;;5059883;28;20037;-69
2023/10/03 05:27:18;;;;;;;1.98;1.50;;;20.60;77.40;;;;;;5068361;28;20433;-69
2023/10/03 05:29:44;;;;;;;2.30;1.42;;;20.60;77.30;;;;;;5066732;28;20029;-69
2023/10/03 05:32:10;;;;;;;2.13;1.70;;;20.50;77.20;;;;;;5066697;28;20042;-69
2023/10/03 05:34:35;;;;;;;2.75;1.67;;;20.50;77.20;;;;;;5047482;28;20357;-69
2023/10/03 05:37:02;;;;;;;4.05;1.70;;;20.40;77.10;;;;;;5060612;28;20035;-70
2023/10/03 05:39:28;;;;;;;2.08;1.70;;;20.40;77.20;;;;;;5068527;28;20045;-69
2023/10/03 05:41:56;;;;;;;3.63;1.80;;;20.30;77.20;;;;;;5067438;28;20020;-70
2023/10/03 05:44:23;;;;;;;4.65;2.03;;;20.30;77.30;;;;;;5061298;28;20032;-64
2023/10/03 05:46:53;;;;;;;4.50;1.98;;;20.40;77.30;;;;;;5045736;28;20563;-64
2023/10/03 05:49:19;;;;;;;3.58;1.35;;;20.40;77.30;;;;;;5063546;28;20033;-65
2023/10/03 05:51:45;;;;;;;2.40;1.40;;;20.40;77.20;;;;;;5065705;28;20054;-64
2023/10/03 05:54:10;;;;;;;3.15;1.70;;;20.40;77.40;;;;;;5026248;28;20063;-65
2023/10/03 05:56:37;;;;;;;1.83;1.23;;;20.40;77.20;;;;;;5050594;28;20029;-70
2023/10/03 05:59:02;;;;;;;2.65;2.25;;;20.40;77.10;;;;;;5049588;28;20035;-70
2023/10/03 06:01:28;;;;;;;2.00;1.80;;;20.40;77.10;;;;;;5065852;28;20037;-70
2023/10/03 06:03:56;;;;;;;2.70;1.42;;;20.40;77.10;;;;;;5061676;28;20048;-70
2023/10/03 06:06:22;;;;;;;4.40;2.22;;;20.40;77.10;;;;;;5067872;28;20025;-70
2023/10/03 06:08:49;;;;;;;3.60;2.10;;;20.40;77.20;;;;;;5066759;28;20044;-70
2023/10/03 06:11:16;;;;;;;3.45;1.42;;;20.40;77.20;;;;;;5068854;28;20025;-70
2023/10/03 06:13:44;;;;;;;2.50;1.90;;;20.40;77.10;;;;;;5064803;28;20631;-70
2023/10/03 06:16:17;;;;;;;1.40;1.30;;;20.50;77.10;;;;;;5065123;28;20368;-70
2023/10/03 06:18:43;;;;;;;3.33;1.60;;;20.50;77.10;;;;;;5062512;28;20035;-69
2023/10/03 06:21:08;;;;;;;3.35;1.60;;;20.40;77.00;;;;;;5063974;28;20040;-70
2023/10/03 06:23:35;;;;;;;4.18;2.15;;;20.40;77.20;;;;;;5068857;28;20032;-70
2023/10/03 06:26:01;;;;;;;10.93;2.38;;;20.40;77.40;;;;;;5051732;28;20111;-70
2023/10/03 06:28:28;;;;;;;2.30;1.67;;;20.40;77.50;;;;;;5065302;28;20062;-70
2023/10/03 06:30:54;;;;;;;2.25;1.75;;;20.40;77.50;;;;;;5068952;28;20045;-65
2023/10/03 06:33:21;;;;;;;2.95;1.48;;;20.30;77.50;;;;;;5052258;28;20035;-70
2023/10/03 06:35:50;;;;;;;4.68;1.77;;;20.40;77.60;;;;;;5068949;28;20491;-70
2023/10/03 06:38:16;;;;;;;4.88;2.33;;;20.40;77.70;;;;;;5066262;28;20036;-70
2023/10/03 06:40:43;;;;;;;3.65;1.38;;;20.40;77.60;;;;;;5048658;28;20040;-70
2023/10/03 06:43:09;;;;;;;4.30;1.58;;;20.40;77.70;;;;;;5046716;28;20031;-69
2023/10/03 06:45:35;;;;;;;5.10;1.80;;;20.40;77.40;;;;;;5070420;28;20398;-69
2023/10/03 06:48:03;;;;;;;2.95;1.63;;;20.40;77.40;;;;;;5066392;28;20029;-70
2023/10/03 06:50:30;;;;;;;3.33;1.50;;;20.50;77.30;;;;;;5071028;28;20066;-64
2023/10/03 06:52:56;;;;;;;2.95;1.65;;;20.50;77.30;;;;;;5066366;28;20107;-70
2023/10/03 06:55:22;;;;;;;3.53;1.58;;;20.60;77.30;;;;;;5071506;28;20040;-70
2023/10/03 06:57:47;;;;;;;2.65;1.80;;;20.60;77.30;;;;;;5068218;28;20495;-70
2023/10/03 07:00:14;;;;;;;3.03;1.50;;;20.50;77.30;;;;;;5064511;28;20035;-70
2023/10/03 07:02:40;;;;;;;2.88;1.60;;;20.60;77.40;;;;;;5070132;28;20033;-70
2023/10/03 07:05:07;;;;;;;3.35;2.03;;;20.50;77.30;;;;;;5069091;28;20410;-69
2023/10/03 07:07:35;;;;;;;5.03;2.42;;;20.60;77.40;;;;;;5069017;28;20036;-69
2023/10/03 07:10:01;;;;;;;2.17;1.25;;;20.60;77.30;;;;;;5049429;28;20487;-69
2023/10/03 07:12:26;;;;;;;4.70;2.30;;;20.60;77.20;;;;;;5067909;28;20085;-69
2023/10/03 07:14:52;;;;;;;5.55;1.83;;;20.70;77.00;;;;;;5070781;28;20054;-69
2023/10/03 07:17:18;;;;;;;2.40;1.98;;;20.70;76.80;;;;;;5063379;28;20048;-71
2023/10/03 07:19:48;;;;;;;7.30;1.95;;;20.80;76.60;;;;;;5066266;28;20434;-70
2023/10/03 07:22:14;;;;;;;4.63;2.10;;;20.80;76.50;;;;;;5065846;28;20025;-70
2023/10/03 07:24:40;;;;;;;2.83;1.80;;;20.90;76.50;;;;;;5070381;28;20032;-70
2023/10/03 07:27:07;;;;;;;2.35;1.60;;;20.90;76.50;;;;;;5067960;28;20471;-72
2023/10/03 07:29:36;;;;;;;3.50;1.75;;;20.80;76.60;;;;;;5066833;28;20086;-70
2023/10/03 07:32:03;;;;;;;4.53;1.77;;;20.70;76.70;;;;;;5063632;28;20025;-70
2023/10/03 07:34:29;;;;;;;2.45;2.25;;;20.70;76.90;;;;;;5047845;28;20467;-69
2023/10/03 07:36:57;;;;;;;5.13;2.00;;;20.60;77.80;;;;;;5062586;28;20040;-70
2023/10/03 07:39:25;;;;;;;3.88;2.03;;;20.50;79.00;;;;;;5038548;28;20029;-71
2023/10/03 07:41:51;;;;;;;5.30;1.90;;;20.40;79.80;;;;;;5069735;28;20486;-70
2023/10/03 07:44:18;;;;;;;3.92;2.42;;;20.20;80.90;;;;;;5055804;28;20032;-63
2023/10/03 07:46:44;;;;;;;1.65;1.50;;;20.00;81.60;;;;;;5064555;28;20044;-63
2023/10/03 07:49:10;;;;;;;3.60;1.77;;;19.90;81.90;;;;;;5066714;28;20253;-71
2023/10/03 07:51:36;;;;;;;5.68;2.15;;;19.80;82.10;;;;;;5067702;28;20024;-67
2023/10/03 07:54:03;;;;;;;3.17;2.13;;;19.80;82.30;;;;;;5065114;28;20024;-66
2023/10/03 07:56:32;;;;;;;2.80;1.60;;;19.70;82.60;;;;;;5069122;28;20036;-67
2023/10/03 07:59:02;;;;;;;2.30;1.58;;;19.80;82.50;;;;;;5063812;28;20543;-67
2023/10/03 08:01:29;;;;;;;2.17;1.73;;;19.90;82.50;;;;;;5067917;28;20139;-67
2023/10/03 08:03:56;;;;;;;2.40;1.73;;;19.90;82.20;;;;;;5062294;28;20025;-67
2023/10/03 08:06:24;;;;;;;2.78;2.00;;;20.00;82.40;;;;;;5059320;28;20028;-68
2023/10/03 08:08:59;;;;;;;1.88;1.50;;;20.00;82.40;;;;;;5048223;28;20070;-67
2023/10/03 08:11:29;;;;;;;1.98;1.38;;;20.00;82.30;;;;;;5058828;28;20039;-67
2023/10/03 08:13:59;;;;;;;1.95;1.35;;;19.90;82.30;;;;;;5048831;28;20037;-67
2023/10/03 08:16:27;;;;;;;2.42;1.67;;;19.90;82.20;;;;;;5060209;28;20476;-68
2023/10/03 08:18:58;;;;;;;3.83;1.42;;;19.90;82.20;;;;;;5064603;28;20031;-68
2023/10/03 08:21:28;;;;;;;3.38;0.93;;;19.80;82.10;;;;;;5061912;28;20556;-68
2023/10/03 08:23:58;;;;;;;1.40;1.17;;;19.80;82.00;;;;;;5058203;28;20067;-68
2023/10/03 08:26:25;;;;;;;2.95;1.35;;;19.90;82.00;;;;;;5065799;28;20036;-68
2023/10/03 08:29:04;;;;;;;4.28;1.02;;;19.90;81.70;;;;;;5064918;28;20046;-68
2023/10/03 08:31:30;;;;;;;1.58;1.02;;;19.90;81.40;;;;;;5064389;28;20032;-63
2023/10/03 08:33:55;;;;;;;4.30;1.27;;;19.90;81.20;;;;;;5066942;28;20039;-63
2023/10/03 08:36:23;;;;;;;1.00;0.90;;;19.90;81.20;;;;;;5065949;28;20032;-63
2023/10/03 08:38:49;;;;;;;1.00;0.93;;;20.00;81.10;;;;;;5063972;28;20094;-68
2023/10/03 08:41:30;;;;;;;1.67;0.70;;;20.00;81.10;;;;;;5064299;28;20036;-68
2023/10/03 08:44:00;;;;;;;5.32;1.00;;;19.90;81.10;;;;;;5063536;28;20043;-63
2023/10/03 08:46:29;;;;;;;1.27;1.02;;;19.80;81.20;;;;;;5060935;28;20048;-63
2023/10/03 08:49:00;;;;;;;2.05;0.90;;;19.70;81.50;;;;;;5065204;28;20499;-68
2023/10/03 08:51:32;;;;;;;1.17;0.85;;;19.70;81.90;;;;;;5058151;28;20025;-68
2023/10/03 08:54:08;;;;;;;1.42;0.80;;;19.60;82.10;;;;;;5060405;28;20059;-63
2023/10/03 08:56:35;;;;;;;2.58;1.17;;;19.60;82.40;;;;;;5062218;28;20027;-62
2023/10/03 08:59:03;;;;;;;2.22;0.65;;;19.60;82.70;;;;;;5060838;28;20032;-67
2023/10/03 09:01:33;;;;;;;3.00;0.88;;;19.40;83.20;;;;;;5065120;28;20384;-68
2023/10/03 09:04:04;;;;;;;2.20;1.10;;;19.40;83.60;;;;;;5058947;28;20025;-68
2023/10/03 09:06:38;;;;;;;2.28;0.85;;;19.40;83.90;;;;;;5061772;28;20558;-67
2023/10/03 09:09:08;;;;;;;0.63;0.63;;;19.40;83.90;;;;;;5058351;28;20033;-62
2023/10/03 09:11:37;;;;;;;2.83;0.60;;;19.40;83.80;;;;;;5061404;28;20676;-67
2023/10/03 09:14:04;;;;;;;1.95;0.60;;;19.40;83.80;;;;;;5053743;28;20028;-62
2023/10/03 09:16:29;;;;;;;0.50;0.40;;;19.50;83.70;;;;;;5060057;28;20341;-67
2023/10/03 09:19:00;;;;;;;2.20;0.60;;;19.40;83.50;;;;;;5057416;28;20103;-67
2023/10/03 09:21:29;;;;;;;0.70;0.47;;;19.40;83.30;;;;;;5056155;28;20020;-67
2023/10/03 09:24:09;;;;;;;4.00;0.63;;;19.40;83.00;;;;;;5062222;28;20452;-67
2023/10/03 09:26:52;;;;;;;0.50;0.50;;;19.30;83.00;;;;;;5060701;28;20028;-62
2023/10/03 09:29:18;;;;;;;0.73;0.60;;;19.40;83.00;;;;;;5059840;28;20644;-67
2023/10/03 09:31:48;;;;;;;0.93;0.63;;;19.40;82.70;;;;;;5060402;28;20058;-67
2023/10/03 09:34:15;;;;;;;3.53;0.73;;;19.40;82.50;;;;;;5058894;28;20497;-67
2023/10/03 09:36:41;;;;;;;1.83;0.90;;;19.50;82.50;;;;;;5060610;28;20398;-67
2023/10/03 09:39:08;;;;;;;0.30;0.30;;;19.50;82.00;;;;;;5064690;28;20481;-67
2023/10/03 09:41:38;;;;;;;0.38;0.38;;;19.50;82.00;;;;;;5064990;28;20348;-67
2023/10/03 09:44:06;;;;;;;0.70;0.70;;;19.60;82.00;;;;;;5058799;28;20040;-67
2023/10/03 09:46:40;;;;;;;0.73;0.50;;;19.70;81.30;;;;;;5064067;28;20089;-67
2023/10/03 09:49:09;;;;;;;0.52;0.52;;;19.70;81.10;;;;;;5065980;28;20069;-69
2023/10/03 09:51:36;;;;;;;1.85;0.68;;;19.70;80.70;;;;;;5042193;28;20043;-67
2023/10/03 09:54:10;;;;;;;0.75;0.73;;;19.80;80.40;;;;;;5063763;28;20040;-67
2023/10/03 09:56:40;;;;;;;0.40;0.40;;;19.80;80.50;;;;;;5061254;28;20147;-67
2023/10/03 09:59:07;;;;;;;2.38;0.60;;;19.90;80.50;;;;;;5062322;28;20016;-70
2023/10/03 10:01:39;;;;;;;0.60;0.45;;;19.90;80.20;;;;;;5065138;28;20031;-68
2023/10/03 10:04:08;;;;;;;0.70;0.70;;;19.80;79.80;;;;;;5067969;28;20414;-70
2023/10/03 10:06:41;;;;;;;2.00;0.80;;;19.70;79.80;;;;;;5068198;28;20017;-67
2023/10/03 10:09:13;;;;;;;1.10;0.70;;;19.50;80.20;;;;;;5069849;28;20055;-67
2023/10/03 10:12:21;;;;;;;1.65;0.90;;;19.40;80.20;;;;;;5065322;28;20032;-67
2023/10/03 10:15:13;;;;;;;1.27;0.93;;;19.40;80.00;;;;;;5062227;28;20020;-67
2023/10/03 10:17:51;;;;;;;3.70;0.52;;;19.20;80.20;;;;;;5068022;28;20031;-63
2023/10/03 10:20:21;;;;;;;0.30;0.30;;;19.20;80.20;;;;;;5065680;28;20099;-63
2023/10/03 10:23:01;;;;;;;0.30;0.30;;;19.20;80.20;;;;;;5053834;28;20480;-63
2023/10/03 10:25:28;;;;;;;0.30;0.30;;;19.20;80.00;;;;;;5069190;28;20494;-63
2023/10/03 10:28:08;;;;;;;0.52;0.52;;;19.20;79.80;;;;;;5067090;28;20082;-63
2023/10/03 10:30:39;;;;;;;0.50;0.50;;;19.10;79.60;;;;;;5058674;28;20040;-63
2023/10/03 10:33:20;;;;;;;0.30;0.22;;;19.10;79.70;;;;;;5070538;28;20048;-63
2023/10/03 10:35:59;;;;;;;0.30;0.30;;;19.10;79.50;;;;;;5064077;28;20671;-63
2023/10/03 10:38:31;;;;;;;0.28;0.28;;;19.00;79.40;;;;;;5069159;28;20032;-63
2023/10/03 10:41:17;;;;;;;0.20;0.20;;;19.00;79.40;;;;;;5061643;28;20024;-63
2023/10/03 10:44:06;;;;;;;0.30;0.30;;;19.10;79.50;;;;;;5062582;28;20402;-64
2023/10/03 10:46:42;;;;;;;1.52;0.63;;;19.10;79.30;;;;;;5064884;28;20105;-63
2023/10/03 10:49:49;;;;;;;1.02;0.65;;;19.00;79.10;;;;;;5066606;28;20433;-70
2023/10/03 10:52:17;;;;;;;0.63;0.60;;;19.00;79.10;;;;;;5066203;28;20039;-63
2023/10/03 10:54:44;;;;;;;0.55;0.50;;;19.00;79.40;;;;;;5064358;28;20057;-63
2023/10/03 10:57:11;;;;;;;0.38;0.38;;;19.10;79.20;;;;;;5066788;28;20072;-65
2023/10/03 10:59:40;;;;;;;1.33;0.55;;;19.10;78.80;;;;;;5066820;28;20501;-64
2023/10/03 11:02:27;;;;;;;2.38;0.40;;;19.00;78.90;;;;;;5069739;28;20028;-62
2023/10/03 11:04:59;;;;;;;0.60;0.50;;;19.00;78.90;;;;;;5066050;28;20480;-65
2023/10/03 11:07:27;;;;;;;0.75;0.40;;;19.00;79.00;;;;;;5066950;28;20031;-63
2023/10/03 11:10:04;;;;;;;1.05;0.55;;;19.00;78.80;;;;;;5069599;28;20033;-62
2023/10/03 11:12:29;;;;;;;1.13;0.60;;;19.00;78.90;;;;;;5067315;28;20498;-63
2023/10/03 11:14:56;;;;;;;0.60;0.60;;;19.00;78.90;;;;;;5068490;28;20020;-63
2023/10/03 11:17:23;;;;;;;0.32;0.30;;;19.20;78.90;;;;;;5067728;28;20032;-65
2023/10/03 11:19:50;;;;;;;0.65;0.40;;;19.20;78.40;;;;;;5052024;28;20059;-63
2023/10/03 11:22:17;;;;;;;0.25;0.20;;;19.20;78.20;;;;;;5066813;28;20024;-63
2023/10/03 11:24:46;;;;;;;0.52;0.52;;;19.20;77.90;;;;;;5062905;28;20464;-63
2023/10/03 11:27:26;;;;;;;3.85;0.70;;;19.10;77.90;;;;;;5061639;28;20498;-66
2023/10/03 11:29:52;;;;;;;0.50;0.30;;;19.20;78.20;;;;;;5058583;28;20028;-63
2023/10/03 11:32:23;;;;;;;1.45;0.50;;;19.20;77.60;;;;;;5062204;28;20029;-63
2023/10/03 11:34:50;;;;;;;1.55;0.63;;;19.10;77.50;;;;;;5065227;28;20091;-62
2023/10/03 11:37:32;;;;;;;0.63;0.60;;;19.20;77.70;;;;;;5059448;28;20072;-62
2023/10/03 11:40:08;;;;;;;1.40;0.88;;;19.10;77.80;;;;;;5066788;28;20029;-62
2023/10/03 11:42:43;;;;;;;0.80;0.70;;;19.00;78.20;;;;;;5064866;28;20024;-62
2023/10/03 11:45:14;;;;;;;1.13;0.52;;;19.00;78.60;;;;;;5045597;28;20025;-62
2023/10/03 11:47:40;;;;;;;1.27;0.90;;;19.00;78.70;;;;;;5060358;28;20445;-62
2023/10/03 11:50:07;;;;;;;0.60;0.60;;;18.90;78.80;;;;;;5067055;28;20029;-67
2023/10/03 11:52:33;;;;;;;1.02;0.70;;;18.90;79.00;;;;;;5067720;28;20044;-62
2023/10/03 11:54:58;;;;;;;0.50;0.50;;;19.00;79.20;;;;;;5062351;28;20024;-63
2023/10/03 11:57:24;;;;;;;0.57;0.57;;;18.90;79.20;;;;;;5047598;28;20029;-68
2023/10/03 11:59:50;;;;;;;1.60;0.60;;;18.80;79.60;;;;;;5065013;28;20017;-67
2023/10/03 12:02:16;;;;;;;1.40;0.60;;;18.80;79.70;;;;;;5054252;28;20036;-68
2023/10/03 12:04:42;;;;;;;1.65;0.95;;;18.70;79.70;;;;;;5048497;28;20025;-62
2023/10/03 12:07:08;;;;;;;1.42;0.70;;;18.80;79.70;;;;;;5044083;28;20046;-67
2023/10/03 12:09:33;;;;;;;1.48;0.60;;;18.80;79.80;;;;;;5064367;28;20032;-67
2023/10/03 12:12:00;;;;;;;0.70;0.60;;;18.70;79.80;;;;;;5052521;28;20032;-67
2023/10/03 12:14:28;;;;;;;0.80;0.63;;;18.70;79.70;;;;;;5061662;28;20818;-67
2023/10/03 12:16:54;;;;;;;1.25;0.80;;;18.70;79.60;;;;;;5052219;28;20043;-68
2023/10/03 12:19:20;;;;;;;1.65;0.88;;;18.50;79.80;;;;;;5064759;28;20040;-68
2023/10/03 12:21:46;;;;;;;0.65;0.40;;;18.30;80.00;;;;;;5061484;28;20032;-68
2023/10/03 12:24:11;;;;;;;1.08;0.75;;;18.10;80.40;;;;;;5061067;28;20066;-68
2023/10/03 12:26:37;;;;;;;0.95;0.90;;;18.10;80.60;;;;;;5060811;28;21079;-68
2023/10/03 12:29:04;;;;;;;1.08;0.60;;;18.00;80.90;;;;;;5066820;28;20407;-63
2023/10/03 12:31:32;;;;;;;0.60;0.52;;;18.00;80.60;;;;;;5066350;28;20040;-63
2023/10/03 12:33:58;;;;;;;2.38;1.40;;;18.00;80.60;;;;;;5040893;28;20028;-63
2023/10/03 12:36:26;;;;;;;1.08;0.60;;;18.10;80.30;;;;;;5064432;28;20036;-68
2023/10/03 12:38:52;;;;;;;1.80;0.95;;;18.10;80.30;;;;;;5068129;28;20491;-68
2023/10/03 12:41:19;;;;;;;0.60;0.60;;;18.10;80.50;;;;;;5066016;28;20028;-68
2023/10/03 12:43:48;;;;;;;2.28;1.08;;;18.00;80.60;;;;;;5046122;28;20054;-68
2023/10/03 12:46:14;;;;;;;3.58;1.52;;;17.90;80.90;;;;;;5062299;28;20048;-68
2023/10/03 12:48:40;;;;;;;4.05;1.52;;;17.90;80.90;;;;;;5067775;28;20047;-68
2023/10/03 12:51:06;;;;;;;2.30;1.10;;;17.80;81.00;;;;;;5059019;28;20043;-68
2023/10/03 12:53:36;;;;;;;2.45;0.98;;;17.80;81.10;;;;;;5064384;28;20037;-69
2023/10/03 12:56:08;;;;;;;1.05;0.50;;;17.80;81.10;;;;;;5048906;28;20032;-67
2023/10/03 12:58:35;;;;;;;1.48;0.93;;;17.90;81.20;;;;;;5059292;28;20043;-68
2023/10/03 13:01:02;;;;;;;2.13;1.15;;;18.00;81.10;;;;;;5043355;28;20057;-68